sensor_id;sensor_type;location;lat;lon;timestamp;temperature;humidity
38941;DHT22;43236;47.208;7.518;2024-01-30T00:01:09;6.20;93.80
38941;DHT22;43236;47.208;7.518;2024-01-30T00:03:56;6.20;93.70
38941;DHT22;43236;47.208;7.518;2024-01-30T00:06:44;6.20;93.60
38941;DHT22;43236;47.208;7.518;2024-01-30T00:09:31;6.20;93.60
38941;DHT22;43236;47.208;7.518;2024-01-30T00:12:19;6.20;93.60
38941;DHT22;43236;47.208;7.518;2024-01-30T00:15:07;6.10;93.50
38941;DHT22;43236;47.208;7.518;2024-01-30T00:17:55;6.10;93.70
38941;DHT22;43236;47.208;7.518;2024-01-30T00:20:42;6.10;93.40
38941;DHT22;43236;47.208;7.518;2024-01-30T00:23:29;6.10;93.40
38941;DHT22;43236;47.208;7.518;2024-01-30T00:26:16;6.10;93.40
38941;DHT22;43236;47.208;7.518;2024-01-30T00:29:05;6.10;93.30
38941;DHT22;43236;47.208;7.518;2024-01-30T00:31:52;6.10;93.30
38941;DHT22;43236;47.208;7.518;2024-01-30T00:34:39;6.10;93.50
38941;DHT22;43236;47.208;7.518;2024-01-30T00:37:26;6.10;93.40
38941;DHT22;43236;47.208;7.518;2024-01-30T00:40:13;6.10;93.90
38941;DHT22;43236;47.208;7.518;2024-01-30T00:43:01;6.10;93.80
38941;DHT22;43236;47.208;7.518;2024-01-30T00:45:49;6.00;93.70
38941;DHT22;43236;47.208;7.518;2024-01-30T00:48:37;6.00;93.60
38941;DHT22;43236;47.208;7.518;2024-01-30T00:51:24;6.00;93.50
38941;DHT22;43236;47.208;7.518;2024-01-30T00:54:11;6.00;93.60
38941;DHT22;43236;47.208;7.518;2024-01-30T00:56:58;6.00;93.50
38941;DHT22;43236;47.208;7.518;2024-01-30T00:59:45;6.00;93.30
38941;DHT22;43236;47.208;7.518;2024-01-30T01:02:34;6.00;93.30
38941;DHT22;43236;47.208;7.518;2024-01-30T01:05:21;5.90;93.20
38941;DHT22;43236;47.208;7.518;2024-01-30T01:08:08;5.90;93.10
38941;DHT22;43236;47.208;7.518;2024-01-30T01:10:55;5.90;93.10
38941;DHT22;43236;47.208;7.518;2024-01-30T01:13:42;5.90;93.20
38941;DHT22;43236;47.208;7.518;2024-01-30T01:16:29;5.90;93.30
38941;DHT22;43236;47.208;7.518;2024-01-30T01:19:18;5.90;93.20
38941;DHT22;43236;47.208;7.518;2024-01-30T01:22:05;5.90;93.20
38941;DHT22;43236;47.208;7.518;2024-01-30T01:24:52;5.90;93.50
38941;DHT22;43236;47.208;7.518;2024-01-30T01:27:39;5.90;93.80
38941;DHT22;43236;47.208;7.518;2024-01-30T01:30:28;5.90;94.00
38941;DHT22;43236;47.208;7.518;2024-01-30T01:33:15;5.80;94.30
38941;DHT22;43236;47.208;7.518;2024-01-30T01:36:03;5.80;94.50
38941;DHT22;43236;47.208;7.518;2024-01-30T01:38:50;5.80;94.90
38941;DHT22;43236;47.208;7.518;2024-01-30T01:41:37;5.80;95.10
38941;DHT22;43236;47.208;7.518;2024-01-30T01:44:24;5.80;95.00
38941;DHT22;43236;47.208;7.518;2024-01-30T01:47:11;5.80;95.70
38941;DHT22;43236;47.208;7.518;2024-01-30T01:49:58;5.80;96.30
38941;DHT22;43236;47.208;7.518;2024-01-30T01:52:47;5.80;96.00
38941;DHT22;43236;47.208;7.518;2024-01-30T01:55:35;5.80;95.90
38941;DHT22;43236;47.208;7.518;2024-01-30T01:58:23;5.70;95.40
38941;DHT22;43236;47.208;7.518;2024-01-30T02:01:14;5.70;95.30
38941;DHT22;43236;47.208;7.518;2024-01-30T02:04:03;5.70;94.90
38941;DHT22;43236;47.208;7.518;2024-01-30T02:06:50;5.60;95.10
38941;DHT22;43236;47.208;7.518;2024-01-30T02:09:39;5.60;95.20
38941;DHT22;43236;47.208;7.518;2024-01-30T02:12:26;5.60;95.10
38941;DHT22;43236;47.208;7.518;2024-01-30T02:15:13;5.70;95.20
38941;DHT22;43236;47.208;7.518;2024-01-30T02:18:01;5.70;95.20
38941;DHT22;43236;47.208;7.518;2024-01-30T02:20:49;5.70;95.20
38941;DHT22;43236;47.208;7.518;2024-01-30T02:23:38;5.70;95.20
38941;DHT22;43236;47.208;7.518;2024-01-30T02:26:26;5.80;95.30
38941;DHT22;43236;47.208;7.518;2024-01-30T02:29:13;5.80;95.60
38941;DHT22;43236;47.208;7.518;2024-01-30T02:32:00;5.80;95.60
38941;DHT22;43236;47.208;7.518;2024-01-30T02:34:47;5.90;95.70
38941;DHT22;43236;47.208;7.518;2024-01-30T02:37:34;5.90;95.60
38941;DHT22;43236;47.208;7.518;2024-01-30T02:40:22;6.00;95.40
38941;DHT22;43236;47.208;7.518;2024-01-30T02:43:09;6.00;95.30
38941;DHT22;43236;47.208;7.518;2024-01-30T02:45:56;6.00;95.30
38941;DHT22;43236;47.208;7.518;2024-01-30T02:48:44;6.00;95.50
38941;DHT22;43236;47.208;7.518;2024-01-30T02:51:31;6.10;95.70
38941;DHT22;43236;47.208;7.518;2024-01-30T02:54:18;6.10;95.60
38941;DHT22;43236;47.208;7.518;2024-01-30T02:57:06;6.10;95.70
38941;DHT22;43236;47.208;7.518;2024-01-30T02:59:54;6.10;95.70
38941;DHT22;43236;47.208;7.518;2024-01-30T03:02:41;6.10;95.30
38941;DHT22;43236;47.208;7.518;2024-01-30T03:05:28;6.10;95.30
38941;DHT22;43236;47.208;7.518;2024-01-30T03:08:15;6.10;95.30
38941;DHT22;43236;47.208;7.518;2024-01-30T03:11:02;6.10;95.30
38941;DHT22;43236;47.208;7.518;2024-01-30T03:13:50;6.10;95.20
38941;DHT22;43236;47.208;7.518;2024-01-30T03:16:37;6.10;95.30
38941;DHT22;43236;47.208;7.518;2024-01-30T03:19:25;6.00;95.60
38941;DHT22;43236;47.208;7.518;2024-01-30T03:22:12;6.00;95.80
38941;DHT22;43236;47.208;7.518;2024-01-30T03:24:59;6.00;96.20
38941;DHT22;43236;47.208;7.518;2024-01-30T03:27:46;6.00;96.40
38941;DHT22;43236;47.208;7.518;2024-01-30T03:30:35;5.90;96.50
38941;DHT22;43236;47.208;7.518;2024-01-30T03:33:22;5.90;96.30
38941;DHT22;43236;47.208;7.518;2024-01-30T03:36:10;5.90;95.90
38941;DHT22;43236;47.208;7.518;2024-01-30T03:38:57;5.90;95.90
38941;DHT22;43236;47.208;7.518;2024-01-30T03:41:44;5.80;95.50
38941;DHT22;43236;47.208;7.518;2024-01-30T03:44:31;5.90;95.70
38941;DHT22;43236;47.208;7.518;2024-01-30T03:47:20;5.90;95.50
38941;DHT22;43236;47.208;7.518;2024-01-30T03:50:07;5.80;95.60
38941;DHT22;43236;47.208;7.518;2024-01-30T03:52:54;5.70;95.60
38941;DHT22;43236;47.208;7.518;2024-01-30T03:55:41;5.70;95.70
38941;DHT22;43236;47.208;7.518;2024-01-30T03:58:28;5.70;95.40
38941;DHT22;43236;47.208;7.518;2024-01-30T04:01:15;5.70;95.50
38941;DHT22;43236;47.208;7.518;2024-01-30T04:04:04;5.70;95.60
38941;DHT22;43236;47.208;7.518;2024-01-30T04:06:51;5.70;95.70
38941;DHT22;43236;47.208;7.518;2024-01-30T04:09:38;5.80;95.80
38941;DHT22;43236;47.208;7.518;2024-01-30T04:12:25;5.80;95.80
38941;DHT22;43236;47.208;7.518;2024-01-30T04:15:12;5.80;95.70
38941;DHT22;43236;47.208;7.518;2024-01-30T04:17:59;5.80;95.60
38941;DHT22;43236;47.208;7.518;2024-01-30T04:20:48;5.80;95.30
38941;DHT22;43236;47.208;7.518;2024-01-30T04:23:35;5.80;95.20
38941;DHT22;43236;47.208;7.518;2024-01-30T04:26:22;5.80;94.90
38941;DHT22;43236;47.208;7.518;2024-01-30T04:29:09;5.80;94.70
38941;DHT22;43236;47.208;7.518;2024-01-30T04:31:56;5.70;94.60
38941;DHT22;43236;47.208;7.518;2024-01-30T04:34:43;5.70;94.60
38941;DHT22;43236;47.208;7.518;2024-01-30T04:37:31;5.80;94.50
38941;DHT22;43236;47.208;7.518;2024-01-30T04:40:18;5.70;94.50
38941;DHT22;43236;47.208;7.518;2024-01-30T04:43:06;5.70;94.60
38941;DHT22;43236;47.208;7.518;2024-01-30T04:45:53;5.70;94.50
38941;DHT22;43236;47.208;7.518;2024-01-30T04:48:40;5.70;94.60
38941;DHT22;43236;47.208;7.518;2024-01-30T04:51:27;5.70;94.30
38941;DHT22;43236;47.208;7.518;2024-01-30T04:54:15;5.70;94.20
38941;DHT22;43236;47.208;7.518;2024-01-30T04:57:03;5.60;94.10
38941;DHT22;43236;47.208;7.518;2024-01-30T04:59:51;5.60;94.00
38941;DHT22;43236;47.208;7.518;2024-01-30T05:02:38;5.60;93.90
38941;DHT22;43236;47.208;7.518;2024-01-30T05:05:25;5.50;93.80
38941;DHT22;43236;47.208;7.518;2024-01-30T05:08:12;5.50;93.90
38941;DHT22;43236;47.208;7.518;2024-01-30T05:11:01;5.50;93.90
38941;DHT22;43236;47.208;7.518;2024-01-30T05:13:49;5.40;93.80
38941;DHT22;43236;47.208;7.518;2024-01-30T05:16:36;5.50;94.00
38941;DHT22;43236;47.208;7.518;2024-01-30T05:19:23;5.50;93.80
38941;DHT22;43236;47.208;7.518;2024-01-30T05:22:10;5.50;93.90
38941;DHT22;43236;47.208;7.518;2024-01-30T05:25:01;5.50;94.10
38941;DHT22;43236;47.208;7.518;2024-01-30T05:27:49;5.50;94.10
38941;DHT22;43236;47.208;7.518;2024-01-30T05:30:36;5.40;94.20
38941;DHT22;43236;47.208;7.518;2024-01-30T05:33:23;5.40;94.10
38941;DHT22;43236;47.208;7.518;2024-01-30T05:36:11;5.50;94.40
38941;DHT22;43236;47.208;7.518;2024-01-30T05:38:59;5.50;94.00
38941;DHT22;43236;47.208;7.518;2024-01-30T05:41:46;5.40;94.00
38941;DHT22;43236;47.208;7.518;2024-01-30T05:44:34;5.40;93.90
38941;DHT22;43236;47.208;7.518;2024-01-30T05:47:21;5.40;93.80
38941;DHT22;43236;47.208;7.518;2024-01-30T05:50:08;5.50;93.70
38941;DHT22;43236;47.208;7.518;2024-01-30T05:52:55;5.50;93.70
38941;DHT22;43236;47.208;7.518;2024-01-30T05:55:42;5.50;94.00
38941;DHT22;43236;47.208;7.518;2024-01-30T05:58:30;5.50;93.70
38941;DHT22;43236;47.208;7.518;2024-01-30T06:01:19;5.50;93.50
38941;DHT22;43236;47.208;7.518;2024-01-30T06:04:06;5.50;93.50
38941;DHT22;43236;47.208;7.518;2024-01-30T06:06:53;5.50;93.40
38941;DHT22;43236;47.208;7.518;2024-01-30T06:09:40;5.40;93.40
38941;DHT22;43236;47.208;7.518;2024-01-30T06:12:27;5.40;93.50
38941;DHT22;43236;47.208;7.518;2024-01-30T06:15:14;5.40;93.50
38941;DHT22;43236;47.208;7.518;2024-01-30T06:18:03;5.40;93.50
38941;DHT22;43236;47.208;7.518;2024-01-30T06:20:50;5.40;93.40
38941;DHT22;43236;47.208;7.518;2024-01-30T06:23:37;5.30;93.40
38941;DHT22;43236;47.208;7.518;2024-01-30T06:26:25;5.30;93.40
38941;DHT22;43236;47.208;7.518;2024-01-30T06:29:12;5.30;93.50
38941;DHT22;43236;47.208;7.518;2024-01-30T06:32:00;5.30;93.60
38941;DHT22;43236;47.208;7.518;2024-01-30T06:34:48;5.20;93.90
38941;DHT22;43236;47.208;7.518;2024-01-30T06:37:35;5.20;93.50
38941;DHT22;43236;47.208;7.518;2024-01-30T06:40:22;5.20;93.40
38941;DHT22;43236;47.208;7.518;2024-01-30T06:43:09;5.20;93.40
38941;DHT22;43236;47.208;7.518;2024-01-30T06:45:57;5.20;93.40
38941;DHT22;43236;47.208;7.518;2024-01-30T06:48:44;5.20;93.40
38941;DHT22;43236;47.208;7.518;2024-01-30T06:51:32;5.20;93.40
38941;DHT22;43236;47.208;7.518;2024-01-30T06:54:19;5.20;93.20
38941;DHT22;43236;47.208;7.518;2024-01-30T06:57:06;5.10;93.20
38941;DHT22;43236;47.208;7.518;2024-01-30T06:59:57;5.10;93.30
38941;DHT22;43236;47.208;7.518;2024-01-30T07:02:44;5.10;93.30
38941;DHT22;43236;47.208;7.518;2024-01-30T07:05:31;5.10;93.20
38941;DHT22;43236;47.208;7.518;2024-01-30T07:08:20;5.10;93.30
38941;DHT22;43236;47.208;7.518;2024-01-30T07:11:08;5.00;93.30
38941;DHT22;43236;47.208;7.518;2024-01-30T07:13:55;5.10;93.40
38941;DHT22;43236;47.208;7.518;2024-01-30T07:16:42;5.10;93.40
38941;DHT22;43236;47.208;7.518;2024-01-30T07:19:29;5.00;93.30
38941;DHT22;43236;47.208;7.518;2024-01-30T07:22:16;5.00;93.40
38941;DHT22;43236;47.208;7.518;2024-01-30T07:25:06;5.10;93.60
38941;DHT22;43236;47.208;7.518;2024-01-30T07:27:53;5.00;93.20
38941;DHT22;43236;47.208;7.518;2024-01-30T07:30:40;5.00;93.20
38941;DHT22;43236;47.208;7.518;2024-01-30T07:33:27;5.00;93.20
38941;DHT22;43236;47.208;7.518;2024-01-30T07:36:14;5.10;93.40
38941;DHT22;43236;47.208;7.518;2024-01-30T07:39:01;5.10;93.50
38941;DHT22;43236;47.208;7.518;2024-01-30T07:41:50;5.10;93.60
38941;DHT22;43236;47.208;7.518;2024-01-30T07:44:37;5.10;93.70
38941;DHT22;43236;47.208;7.518;2024-01-30T07:47:24;5.10;93.80
38941;DHT22;43236;47.208;7.518;2024-01-30T07:50:11;5.10;94.10
38941;DHT22;43236;47.208;7.518;2024-01-30T07:52:59;5.10;94.20
38941;DHT22;43236;47.208;7.518;2024-01-30T07:55:47;5.10;94.10
38941;DHT22;43236;47.208;7.518;2024-01-30T07:58:35;5.10;94.10
38941;DHT22;43236;47.208;7.518;2024-01-30T08:01:22;5.10;94.20
38941;DHT22;43236;47.208;7.518;2024-01-30T08:04:09;5.10;94.30
38941;DHT22;43236;47.208;7.518;2024-01-30T08:06:56;5.10;94.40
38941;DHT22;43236;47.208;7.518;2024-01-30T08:09:43;5.10;94.10
38941;DHT22;43236;47.208;7.518;2024-01-30T08:12:30;5.20;94.20
38941;DHT22;43236;47.208;7.518;2024-01-30T08:15:18;5.20;94.00
38941;DHT22;43236;47.208;7.518;2024-01-30T08:18:06;5.20;94.00
38941;DHT22;43236;47.208;7.518;2024-01-30T08:20:53;5.20;94.10
38941;DHT22;43236;47.208;7.518;2024-01-30T08:23:40;5.20;94.20
38941;DHT22;43236;47.208;7.518;2024-01-30T08:26:27;5.20;94.00
38941;DHT22;43236;47.208;7.518;2024-01-30T08:29:14;5.20;94.40
38941;DHT22;43236;47.208;7.518;2024-01-30T08:32:03;5.30;94.60
38941;DHT22;43236;47.208;7.518;2024-01-30T08:34:50;5.30;94.80
38941;DHT22;43236;47.208;7.518;2024-01-30T08:37:37;5.30;94.60
38941;DHT22;43236;47.208;7.518;2024-01-30T08:40:25;5.20;94.70
38941;DHT22;43236;47.208;7.518;2024-01-30T08:43:12;5.20;95.10
38941;DHT22;43236;47.208;7.518;2024-01-30T08:45:59;5.30;95.00
38941;DHT22;43236;47.208;7.518;2024-01-30T08:48:47;5.30;94.80
38941;DHT22;43236;47.208;7.518;2024-01-30T08:51:34;5.40;95.10
38941;DHT22;43236;47.208;7.518;2024-01-30T08:54:21;5.40;95.00
38941;DHT22;43236;47.208;7.518;2024-01-30T08:57:08;5.50;95.10
38941;DHT22;43236;47.208;7.518;2024-01-30T08:59:55;5.50;94.90
38941;DHT22;43236;47.208;7.518;2024-01-30T09:02:42;5.50;95.20
38941;DHT22;43236;47.208;7.518;2024-01-30T09:05:31;5.60;95.20
38941;DHT22;43236;47.208;7.518;2024-01-30T09:08:18;5.60;95.30
38941;DHT22;43236;47.208;7.518;2024-01-30T09:11:08;5.60;95.00
38941;DHT22;43236;47.208;7.518;2024-01-30T09:13:56;5.70;95.00
38941;DHT22;43236;47.208;7.518;2024-01-30T09:16:43;5.70;94.60
38941;DHT22;43236;47.208;7.518;2024-01-30T09:19:30;5.70;94.60
38941;DHT22;43236;47.208;7.518;2024-01-30T09:22:18;5.80;94.70
38941;DHT22;43236;47.208;7.518;2024-01-30T09:25:06;5.80;94.80
38941;DHT22;43236;47.208;7.518;2024-01-30T09:27:53;5.80;94.80
38941;DHT22;43236;47.208;7.518;2024-01-30T09:30:40;5.80;94.70
38941;DHT22;43236;47.208;7.518;2024-01-30T09:33:27;5.90;94.90
38941;DHT22;43236;47.208;7.518;2024-01-30T09:36:14;5.90;94.80
38941;DHT22;43236;47.208;7.518;2024-01-30T09:39:02;5.90;94.90
38941;DHT22;43236;47.208;7.518;2024-01-30T09:41:55;5.80;94.90
38941;DHT22;43236;47.208;7.518;2024-01-30T09:44:44;5.90;95.00
38941;DHT22;43236;47.208;7.518;2024-01-30T09:47:39;5.90;95.20
38941;DHT22;43236;47.208;7.518;2024-01-30T09:50:28;5.90;95.10
38941;DHT22;43236;47.208;7.518;2024-01-30T09:53:15;5.80;95.30
38941;DHT22;43236;47.208;7.518;2024-01-30T09:56:05;5.80;95.50
38941;DHT22;43236;47.208;7.518;2024-01-30T09:58:53;5.90;95.80
38941;DHT22;43236;47.208;7.518;2024-01-30T10:01:41;6.00;95.60
38941;DHT22;43236;47.208;7.518;2024-01-30T10:04:29;6.00;95.30
38941;DHT22;43236;47.208;7.518;2024-01-30T10:07:16;5.90;95.60
38941;DHT22;43236;47.208;7.518;2024-01-30T10:10:05;6.00;95.90
38941;DHT22;43236;47.208;7.518;2024-01-30T10:12:53;6.00;95.80
38941;DHT22;43236;47.208;7.518;2024-01-30T10:15:41;6.10;96.10
38941;DHT22;43236;47.208;7.518;2024-01-30T10:18:28;6.10;96.10
38941;DHT22;43236;47.208;7.518;2024-01-30T10:21:15;6.20;96.20
38941;DHT22;43236;47.208;7.518;2024-01-30T10:24:03;6.20;96.40
38941;DHT22;43236;47.208;7.518;2024-01-30T10:26:51;6.30;96.40
38941;DHT22;43236;47.208;7.518;2024-01-30T10:29:39;6.40;96.30
38941;DHT22;43236;47.208;7.518;2024-01-30T10:32:27;6.40;96.40
38941;DHT22;43236;47.208;7.518;2024-01-30T10:35:14;6.50;96.60
38941;DHT22;43236;47.208;7.518;2024-01-30T10:38:01;6.50;96.70
38941;DHT22;43236;47.208;7.518;2024-01-30T10:40:51;6.50;96.90
38941;DHT22;43236;47.208;7.518;2024-01-30T10:43:41;6.50;96.60
38941;DHT22;43236;47.208;7.518;2024-01-30T10:46:32;6.40;97.10
38941;DHT22;43236;47.208;7.518;2024-01-30T10:49:20;6.40;97.30
38941;DHT22;43236;47.208;7.518;2024-01-30T10:52:09;6.40;97.40
38941;DHT22;43236;47.208;7.518;2024-01-30T10:54:57;6.40;97.80
38941;DHT22;43236;47.208;7.518;2024-01-30T10:57:45;6.50;98.00
38941;DHT22;43236;47.208;7.518;2024-01-30T11:00:32;6.60;98.10
38941;DHT22;43236;47.208;7.518;2024-01-30T11:03:22;6.70;98.20
38941;DHT22;43236;47.208;7.518;2024-01-30T11:06:11;6.80;98.00
38941;DHT22;43236;47.208;7.518;2024-01-30T11:09:04;6.90;97.90
38941;DHT22;43236;47.208;7.518;2024-01-30T11:11:57;6.90;97.70
38941;DHT22;43236;47.208;7.518;2024-01-30T11:14:45;7.10;97.80
38941;DHT22;43236;47.208;7.518;2024-01-30T11:17:43;7.20;98.10
38941;DHT22;43236;47.208;7.518;2024-01-30T11:20:32;7.30;98.10
38941;DHT22;43236;47.208;7.518;2024-01-30T11:23:22;7.40;97.90
38941;DHT22;43236;47.208;7.518;2024-01-30T11:26:10;7.50;97.80
38941;DHT22;43236;47.208;7.518;2024-01-30T11:28:57;7.50;98.00
38941;DHT22;43236;47.208;7.518;2024-01-30T11:31:54;7.70;98.40
38941;DHT22;43236;47.208;7.518;2024-01-30T11:34:41;7.80;98.50
38941;DHT22;43236;47.208;7.518;2024-01-30T11:37:31;7.90;98.30
38941;DHT22;43236;47.208;7.518;2024-01-30T11:40:19;8.00;98.50
38941;DHT22;43236;47.208;7.518;2024-01-30T11:43:07;8.10;98.60
38941;DHT22;43236;47.208;7.518;2024-01-30T11:45:54;8.20;98.90
38941;DHT22;43236;47.208;7.518;2024-01-30T11:48:42;8.30;98.80
38941;DHT22;43236;47.208;7.518;2024-01-30T11:51:30;8.40;98.70
38941;DHT22;43236;47.208;7.518;2024-01-30T11:54:19;8.40;98.40
38941;DHT22;43236;47.208;7.518;2024-01-30T11:57:06;8.50;98.00
38941;DHT22;43236;47.208;7.518;2024-01-30T11:59:53;8.60;97.70
38941;DHT22;43236;47.208;7.518;2024-01-30T12:02:40;8.60;97.00
38941;DHT22;43236;47.208;7.518;2024-01-30T12:05:28;8.70;97.50
38941;DHT22;43236;47.208;7.518;2024-01-30T12:08:15;8.80;97.30
38941;DHT22;43236;47.208;7.518;2024-01-30T12:11:06;8.80;97.00
38941;DHT22;43236;47.208;7.518;2024-01-30T12:13:54;8.90;97.30
38941;DHT22;43236;47.208;7.518;2024-01-30T12:16:41;9.00;96.80
38941;DHT22;43236;47.208;7.518;2024-01-30T12:19:28;9.00;96.50
38941;DHT22;43236;47.208;7.518;2024-01-30T12:22:15;9.10;96.30
38941;DHT22;43236;47.208;7.518;2024-01-30T12:25:02;9.20;95.90
38941;DHT22;43236;47.208;7.518;2024-01-30T12:27:52;9.30;95.60
38941;DHT22;43236;47.208;7.518;2024-01-30T12:30:40;9.30;95.40
38941;DHT22;43236;47.208;7.518;2024-01-30T12:33:27;9.40;95.40
38941;DHT22;43236;47.208;7.518;2024-01-30T12:36:14;9.50;95.30
38941;DHT22;43236;47.208;7.518;2024-01-30T12:39:01;9.60;95.30
38941;DHT22;43236;47.208;7.518;2024-01-30T12:41:50;9.60;95.30
38941;DHT22;43236;47.208;7.518;2024-01-30T12:44:38;9.70;94.90
38941;DHT22;43236;47.208;7.518;2024-01-30T12:47:25;9.70;94.90
38941;DHT22;43236;47.208;7.518;2024-01-30T12:50:12;9.80;95.20
38941;DHT22;43236;47.208;7.518;2024-01-30T12:53:01;9.80;95.60
38941;DHT22;43236;47.208;7.518;2024-01-30T12:55:48;9.90;95.40
38941;DHT22;43236;47.208;7.518;2024-01-30T12:58:36;9.80;94.90
38941;DHT22;43236;47.208;7.518;2024-01-30T13:01:24;9.80;95.00
38941;DHT22;43236;47.208;7.518;2024-01-30T13:04:11;9.80;94.70
38941;DHT22;43236;47.208;7.518;2024-01-30T13:06:58;9.70;95.00
38941;DHT22;43236;47.208;7.518;2024-01-30T13:09:46;9.70;95.10
38941;DHT22;43236;47.208;7.518;2024-01-30T13:12:33;9.70;95.30
38941;DHT22;43236;47.208;7.518;2024-01-30T13:15:21;9.70;95.10
38941;DHT22;43236;47.208;7.518;2024-01-30T13:18:10;9.70;95.00
38941;DHT22;43236;47.208;7.518;2024-01-30T13:20:57;9.70;95.10
38941;DHT22;43236;47.208;7.518;2024-01-30T13:23:44;9.70;94.90
38941;DHT22;43236;47.208;7.518;2024-01-30T13:26:32;9.70;95.50
38941;DHT22;43236;47.208;7.518;2024-01-30T13:29:19;9.80;95.40
38941;DHT22;43236;47.208;7.518;2024-01-30T13:32:06;9.80;95.30
38941;DHT22;43236;47.208;7.518;2024-01-30T13:34:55;9.80;95.40
38941;DHT22;43236;47.208;7.518;2024-01-30T13:37:42;9.80;95.70
38941;DHT22;43236;47.208;7.518;2024-01-30T13:40:29;9.90;95.80
38941;DHT22;43236;47.208;7.518;2024-01-30T13:43:16;9.90;95.70
38941;DHT22;43236;47.208;7.518;2024-01-30T13:46:03;9.90;96.00
38941;DHT22;43236;47.208;7.518;2024-01-30T13:48:52;9.90;96.00
38941;DHT22;43236;47.208;7.518;2024-01-30T13:51:40;9.90;96.20
38941;DHT22;43236;47.208;7.518;2024-01-30T13:54:27;10.00;95.60
38941;DHT22;43236;47.208;7.518;2024-01-30T13:57:14;10.00;95.60
38941;DHT22;43236;47.208;7.518;2024-01-30T14:00:01;10.10;95.80
38941;DHT22;43236;47.208;7.518;2024-01-30T14:02:51;10.00;95.80
38941;DHT22;43236;47.208;7.518;2024-01-30T14:05:40;10.00;95.70
38941;DHT22;43236;47.208;7.518;2024-01-30T14:08:28;10.00;95.80
38941;DHT22;43236;47.208;7.518;2024-01-30T14:11:15;10.10;96.00
38941;DHT22;43236;47.208;7.518;2024-01-30T14:14:02;10.10;95.90
38941;DHT22;43236;47.208;7.518;2024-01-30T14:16:49;10.10;95.90
38941;DHT22;43236;47.208;7.518;2024-01-30T14:19:36;10.10;96.00
38941;DHT22;43236;47.208;7.518;2024-01-30T14:22:23;10.10;96.00
38941;DHT22;43236;47.208;7.518;2024-01-30T14:25:12;10.10;96.20
38941;DHT22;43236;47.208;7.518;2024-01-30T14:27:59;10.10;96.00
38941;DHT22;43236;47.208;7.518;2024-01-30T14:30:46;10.10;96.00
38941;DHT22;43236;47.208;7.518;2024-01-30T14:33:33;10.20;96.10
38941;DHT22;43236;47.208;7.518;2024-01-30T14:36:20;10.20;96.10
38941;DHT22;43236;47.208;7.518;2024-01-30T14:39:07;10.20;96.10
38941;DHT22;43236;47.208;7.518;2024-01-30T14:41:56;10.20;95.80
38941;DHT22;43236;47.208;7.518;2024-01-30T14:44:43;10.20;95.80
38941;DHT22;43236;47.208;7.518;2024-01-30T14:47:30;10.20;95.80
38941;DHT22;43236;47.208;7.518;2024-01-30T14:50:17;10.20;95.70
38941;DHT22;43236;47.208;7.518;2024-01-30T14:53:04;10.20;95.80
38941;DHT22;43236;47.208;7.518;2024-01-30T14:55:52;10.20;95.70
38941;DHT22;43236;47.208;7.518;2024-01-30T14:58:41;10.20;95.70
38941;DHT22;43236;47.208;7.518;2024-01-30T15:01:29;10.20;95.50
38941;DHT22;43236;47.208;7.518;2024-01-30T15:04:16;10.10;95.60
38941;DHT22;43236;47.208;7.518;2024-01-30T15:07:03;10.10;95.50
38941;DHT22;43236;47.208;7.518;2024-01-30T15:09:50;10.10;95.60
38941;DHT22;43236;47.208;7.518;2024-01-30T15:12:37;10.10;95.70
38941;DHT22;43236;47.208;7.518;2024-01-30T15:15:26;10.10;95.70
38941;DHT22;43236;47.208;7.518;2024-01-30T15:18:14;10.10;95.70
38941;DHT22;43236;47.208;7.518;2024-01-30T15:21:01;10.10;95.80
38941;DHT22;43236;47.208;7.518;2024-01-30T15:23:48;10.10;95.80
38941;DHT22;43236;47.208;7.518;2024-01-30T15:26:35;10.10;95.50
38941;DHT22;43236;47.208;7.518;2024-01-30T15:29:22;10.10;95.60
38941;DHT22;43236;47.208;7.518;2024-01-30T15:32:11;10.10;95.40
38941;DHT22;43236;47.208;7.518;2024-01-30T15:34:59;10.10;95.50
38941;DHT22;43236;47.208;7.518;2024-01-30T15:37:49;10.00;95.70
38941;DHT22;43236;47.208;7.518;2024-01-30T15:40:36;10.10;95.90
38941;DHT22;43236;47.208;7.518;2024-01-30T15:43:23;10.00;95.80
38941;DHT22;43236;47.208;7.518;2024-01-30T15:46:10;10.00;95.90
38941;DHT22;43236;47.208;7.518;2024-01-30T15:48:59;10.00;95.90
38941;DHT22;43236;47.208;7.518;2024-01-30T15:51:46;10.00;95.90
38941;DHT22;43236;47.208;7.518;2024-01-30T15:54:33;10.00;96.00
38941;DHT22;43236;47.208;7.518;2024-01-30T15:57:21;10.00;96.00
38941;DHT22;43236;47.208;7.518;2024-01-30T16:00:09;10.10;96.00
38941;DHT22;43236;47.208;7.518;2024-01-30T16:02:58;10.10;96.00
38941;DHT22;43236;47.208;7.518;2024-01-30T16:05:46;10.10;96.00
38941;DHT22;43236;47.208;7.518;2024-01-30T16:08:33;10.00;96.00
38941;DHT22;43236;47.208;7.518;2024-01-30T16:11:20;10.00;96.10
38941;DHT22;43236;47.208;7.518;2024-01-30T16:14:07;10.00;96.20
38941;DHT22;43236;47.208;7.518;2024-01-30T16:16:54;10.00;96.20
38941;DHT22;43236;47.208;7.518;2024-01-30T16:19:42;10.00;96.20
38941;DHT22;43236;47.208;7.518;2024-01-30T16:22:30;10.00;96.30
38941;DHT22;43236;47.208;7.518;2024-01-30T16:25:17;9.90;96.80
38941;DHT22;43236;47.208;7.518;2024-01-30T16:28:05;10.00;96.50
38941;DHT22;43236;47.208;7.518;2024-01-30T16:30:52;10.00;96.60
38941;DHT22;43236;47.208;7.518;2024-01-30T16:33:39;9.90;97.10
38941;DHT22;43236;47.208;7.518;2024-01-30T16:36:26;9.90;97.30
38941;DHT22;43236;47.208;7.518;2024-01-30T16:39:14;10.00;96.80
38941;DHT22;43236;47.208;7.518;2024-01-30T16:42:02;9.90;97.40
38941;DHT22;43236;47.208;7.518;2024-01-30T16:44:49;9.90;97.40
38941;DHT22;43236;47.208;7.518;2024-01-30T16:47:36;9.90;97.50
38941;DHT22;43236;47.208;7.518;2024-01-30T16:50:23;9.90;97.50
38941;DHT22;43236;47.208;7.518;2024-01-30T16:53:10;9.90;97.50
38941;DHT22;43236;47.208;7.518;2024-01-30T16:55:58;9.90;97.60
38941;DHT22;43236;47.208;7.518;2024-01-30T16:58:45;9.90;97.60
38941;DHT22;43236;47.208;7.518;2024-01-30T17:01:32;9.90;97.60
38941;DHT22;43236;47.208;7.518;2024-01-30T17:04:19;9.80;97.70
38941;DHT22;43236;47.208;7.518;2024-01-30T17:07:07;9.80;97.70
38941;DHT22;43236;47.208;7.518;2024-01-30T17:09:54;9.80;97.70
38941;DHT22;43236;47.208;7.518;2024-01-30T17:12:43;9.80;97.70
38941;DHT22;43236;47.208;7.518;2024-01-30T17:15:30;9.80;97.80
38941;DHT22;43236;47.208;7.518;2024-01-30T17:18:17;9.70;97.80
38941;DHT22;43236;47.208;7.518;2024-01-30T17:21:05;9.70;97.80
38941;DHT22;43236;47.208;7.518;2024-01-30T17:23:52;9.70;97.90
38941;DHT22;43236;47.208;7.518;2024-01-30T17:26:39;9.70;98.20
38941;DHT22;43236;47.208;7.518;2024-01-30T17:29:27;9.70;98.20
38941;DHT22;43236;47.208;7.518;2024-01-30T17:32:14;9.60;98.30
38941;DHT22;43236;47.208;7.518;2024-01-30T17:35:01;9.60;97.90
38941;DHT22;43236;47.208;7.518;2024-01-30T17:37:48;9.60;97.90
38941;DHT22;43236;47.208;7.518;2024-01-30T17:40:35;9.50;98.00
38941;DHT22;43236;47.208;7.518;2024-01-30T17:43:22;9.50;97.90
38941;DHT22;43236;47.208;7.518;2024-01-30T17:46:10;9.50;97.80
38941;DHT22;43236;47.208;7.518;2024-01-30T17:48:57;9.40;97.80
38941;DHT22;43236;47.208;7.518;2024-01-30T17:51:44;9.40;97.90
38941;DHT22;43236;47.208;7.518;2024-01-30T17:54:31;9.40;97.80